createdAt,value
2018-12-02T00:00:34.205Z,941.27
2018-12-02T00:01:34.101Z,941.28
2018-12-02T00:02:34.002Z,941.23
2018-12-02T00:03:33.906Z,941.29
2018-12-02T00:04:33.814Z,941.27
2018-12-02T00:05:33.694Z,941.28
2018-12-02T00:06:33.597Z,941.27
2018-12-02T00:07:33.491Z,941.19
2018-12-02T00:08:33.390Z,941.21
2018-12-02T00:09:33.291Z,941.17
2018-12-02T00:10:33.209Z,941.16
2018-12-02T00:11:33.085Z,941.12
2018-12-02T00:12:32.982Z,941.15
2018-12-02T00:13:32.883Z,941.15
2018-12-02T00:14:32.782Z,941.17
2018-12-02T00:15:32.693Z,941.14
2018-12-02T00:16:32.576Z,941.03
2018-12-02T00:17:32.473Z,941.04
2018-12-02T00:18:32.374Z,940.98
2018-12-02T00:19:32.271Z,941.02
2018-12-02T00:20:32.184Z,940.99
2018-12-02T00:21:32.076Z,941.02
2018-12-02T00:22:31.966Z,940.95
2018-12-02T00:23:31.866Z,940.95
2018-12-02T00:24:31.763Z,940.94
2018-12-02T00:25:31.676Z,940.86
2018-12-02T00:26:31.558Z,940.83
2018-12-02T00:27:31.461Z,940.81
2018-12-02T00:28:31.355Z,940.80
2018-12-02T00:29:31.653Z,940.76
2018-12-02T00:30:31.170Z,940.74
2018-12-02T00:31:31.052Z,940.77
2018-12-02T00:32:30.952Z,940.76
2018-12-02T00:33:30.846Z,940.70
2018-12-02T00:34:30.878Z,940.69
2018-12-02T00:35:30.662Z,940.66
2018-12-02T00:36:30.542Z,940.70
2018-12-02T00:37:30.440Z,940.81
2018-12-02T00:38:30.340Z,940.67
2018-12-02T00:39:30.243Z,940.73
2018-12-02T00:40:30.154Z,940.69
2018-12-02T00:41:30.038Z,940.75
2018-12-02T00:42:29.935Z,940.71
2018-12-02T00:43:29.833Z,940.76
2018-12-02T00:44:29.730Z,940.71
2018-12-02T00:45:29.646Z,940.72
2018-12-02T00:46:29.527Z,940.67
2018-12-02T00:47:29.425Z,940.65
2018-12-02T00:48:29.326Z,940.70
2018-12-02T00:49:29.223Z,940.75
2018-12-02T00:50:29.148Z,940.75
2018-12-02T00:51:29.020Z,940.78
2018-12-02T00:52:28.922Z,940.71
2018-12-02T00:53:28.817Z,940.75
2018-12-02T00:54:28.717Z,940.71
2018-12-02T00:55:28.631Z,940.68
2018-12-02T00:56:28.511Z,940.60
2018-12-02T00:57:28.411Z,940.58
2018-12-02T00:58:28.307Z,940.59
2018-12-02T00:59:28.207Z,940.58
2018-12-02T01:00:28.123Z,940.75
2018-12-02T01:01:28.003Z,940.65
2018-12-02T01:02:27.903Z,940.58
2018-12-02T01:03:27.803Z,940.65
2018-12-02T01:04:27.699Z,940.57
2018-12-02T01:05:27.613Z,940.60
2018-12-02T01:06:27.500Z,940.61
2018-12-02T01:07:27.396Z,940.58
2018-12-02T01:08:27.294Z,940.61
2018-12-02T01:09:27.193Z,940.67
2018-12-02T01:10:27.106Z,940.66
2018-12-02T01:11:26.990Z,940.65
2018-12-02T01:12:26.886Z,940.64
2018-12-02T01:13:26.784Z,940.71
2018-12-02T01:14:26.688Z,940.74
2018-12-02T01:15:26.598Z,940.64
2018-12-02T01:16:26.483Z,940.68
2018-12-02T01:17:26.379Z,940.68
2018-12-02T01:18:26.276Z,940.70
2018-12-02T01:19:26.175Z,940.62
2018-12-02T01:20:26.088Z,940.63
2018-12-02T01:21:25.972Z,940.70
2018-12-02T01:22:25.868Z,940.63
2018-12-02T01:23:25.771Z,940.69
2018-12-02T01:24:25.672Z,940.61
2018-12-02T01:25:25.581Z,940.62
2018-12-02T01:26:25.465Z,940.57
2018-12-02T01:27:25.364Z,940.55
2018-12-02T01:28:25.264Z,940.50
2018-12-02T01:29:25.160Z,940.46
2018-12-02T01:30:25.075Z,940.51
2018-12-02T01:31:24.957Z,940.49
2018-12-02T01:32:24.857Z,940.45
2018-12-02T01:33:24.756Z,940.46
2018-12-02T01:34:24.652Z,940.41
2018-12-02T01:35:24.571Z,940.43
2018-12-02T01:36:24.449Z,940.38
2018-12-02T01:37:24.366Z,940.37
2018-12-02T01:38:24.256Z,940.43
2018-12-02T01:39:24.147Z,940.32
2018-12-02T01:40:24.061Z,940.26
2018-12-02T01:41:23.941Z,940.25
2018-12-02T01:42:23.842Z,940.28
2018-12-02T01:43:23.737Z,940.23
2018-12-02T01:44:23.743Z,940.30
2018-12-02T01:45:23.558Z,940.21
2018-12-02T01:46:23.436Z,940.24
2018-12-02T01:47:23.333Z,940.21
2018-12-02T01:48:23.233Z,940.18
2018-12-02T01:49:23.129Z,940.22
2018-12-02T01:50:23.048Z,940.23
2018-12-02T01:51:23.032Z,940.13
2018-12-02T01:52:22.840Z,940.13
2018-12-02T01:53:22.727Z,940.17
2018-12-02T01:54:22.626Z,940.07
2018-12-02T01:55:22.527Z,940.12
2018-12-02T01:56:22.438Z,940.09
2018-12-02T01:57:22.320Z,940.05
2018-12-02T01:58:22.322Z,940.07
2018-12-02T01:59:22.117Z,940.23
2018-12-02T02:00:22.018Z,940.04
2018-12-02T02:01:21.931Z,940.07
2018-12-02T02:02:21.815Z,940.07
2018-12-02T02:03:21.716Z,940.08
2018-12-02T02:04:21.608Z,940.07
2018-12-02T02:05:21.623Z,940.01
2018-12-02T02:06:21.425Z,940.03
2018-12-02T02:07:21.309Z,940.02
2018-12-02T02:08:21.204Z,939.98
2018-12-02T02:09:21.103Z,939.99
2018-12-02T02:10:21.006Z,939.89
2018-12-02T02:11:20.920Z,939.96
2018-12-02T02:12:20.898Z,939.90
2018-12-02T02:13:20.698Z,939.89
2018-12-02T02:14:20.596Z,939.87
2018-12-02T02:15:20.502Z,939.79
2018-12-02T02:16:20.423Z,939.82
2018-12-02T02:17:20.291Z,939.78
2018-12-02T02:18:20.193Z,939.73
2018-12-02T02:19:20.189Z,939.74
2018-12-02T02:20:19.987Z,939.78
2018-12-02T02:21:19.902Z,939.80
2018-12-02T02:22:19.788Z,939.67
2018-12-02T02:23:19.686Z,939.74
2018-12-02T02:24:19.581Z,939.63
2018-12-02T02:25:19.482Z,939.60
2018-12-02T02:26:19.508Z,939.59
2018-12-02T02:27:19.282Z,939.53
2018-12-02T02:28:19.178Z,939.58
2018-12-02T02:29:19.078Z,939.53
2018-12-02T02:30:18.976Z,939.51
2018-12-02T02:31:18.891Z,939.49
2018-12-02T02:32:18.769Z,939.46
2018-12-02T02:33:18.776Z,939.42
2018-12-02T02:34:18.568Z,939.44
2018-12-02T02:35:18.466Z,939.41
2018-12-02T02:36:18.382Z,939.39
2018-12-02T02:37:18.263Z,939.41
2018-12-02T02:38:18.162Z,939.37
2018-12-02T02:39:18.062Z,939.43
2018-12-02T02:40:18.084Z,939.35
2018-12-02T02:41:17.879Z,939.40
2018-12-02T02:42:17.755Z,939.39
2018-12-02T02:43:17.654Z,939.46
2018-12-02T02:44:17.557Z,939.36
2018-12-02T02:45:17.451Z,939.34
2018-12-02T02:46:17.367Z,939.36
2018-12-02T02:47:17.355Z,939.35
2018-12-02T02:48:17.149Z,939.32
2018-12-02T02:49:17.047Z,939.41
2018-12-02T02:50:16.945Z,939.32
2018-12-02T02:51:16.860Z,939.31
2018-12-02T02:52:16.741Z,939.28
2018-12-02T02:53:16.639Z,939.28
2018-12-02T02:54:16.546Z,939.29
2018-12-02T02:55:16.444Z,939.29
2018-12-02T02:56:16.350Z,939.23
2018-12-02T02:57:16.234Z,939.27
2018-12-02T02:58:16.132Z,939.21
2018-12-02T02:59:16.031Z,939.16
2018-12-02T03:00:15.930Z,939.08
2018-12-02T03:01:15.854Z,939.09
2018-12-02T03:02:15.731Z,939.05
2018-12-02T03:03:15.628Z,939.09
2018-12-02T03:04:15.526Z,939.07
2018-12-02T03:05:15.423Z,939.06
2018-12-02T03:06:15.343Z,939.07
2018-12-02T03:07:15.322Z,938.99
2018-12-02T03:08:15.120Z,939.02
2018-12-02T03:09:15.015Z,939.03
2018-12-02T03:10:14.921Z,939.00
2018-12-02T03:11:14.904Z,939.00
2018-12-02T03:12:14.713Z,938.99
2018-12-02T03:13:14.610Z,939.04
2018-12-02T03:14:14.509Z,939.01
2018-12-02T03:15:14.407Z,939.02
2018-12-02T03:16:14.321Z,939.03
2018-12-02T03:17:14.202Z,939.02
2018-12-02T03:18:14.102Z,938.93
2018-12-02T03:19:14.003Z,938.94
2018-12-02T03:20:13.899Z,938.93
2018-12-02T03:21:13.814Z,938.96
2018-12-02T03:22:13.692Z,938.92
2018-12-02T03:23:13.600Z,938.91
2018-12-02T03:24:13.491Z,938.85
2018-12-02T03:25:13.391Z,938.84
2018-12-02T03:26:13.303Z,938.85
2018-12-02T03:27:13.187Z,938.81
2018-12-02T03:28:13.087Z,938.79
2018-12-02T03:29:12.985Z,938.84
2018-12-02T03:30:12.889Z,938.78
2018-12-02T03:31:16.041Z,938.80
2018-12-02T03:32:12.686Z,938.81
2018-12-02T03:33:12.585Z,938.78
2018-12-02T03:34:12.488Z,938.84
2018-12-02T03:35:12.375Z,938.77
2018-12-02T03:36:12.291Z,938.79
2018-12-02T03:37:12.172Z,938.70
2018-12-02T03:38:12.071Z,938.72
2018-12-02T03:39:11.971Z,938.71
2018-12-02T03:40:11.894Z,938.75
2018-12-02T03:41:11.767Z,938.64
2018-12-02T03:42:11.679Z,938.60
2018-12-02T03:43:11.566Z,938.70
2018-12-02T03:44:11.466Z,938.72
2018-12-02T03:45:11.438Z,938.59
2018-12-02T03:46:11.261Z,938.64
2018-12-02T03:47:11.173Z,938.67
2018-12-02T03:48:11.073Z,938.76
2018-12-02T03:49:10.955Z,938.69
2018-12-02T03:50:17.169Z,938.66
2018-12-02T03:51:10.752Z,938.85
2018-12-02T03:52:10.665Z,938.68
2018-12-02T03:53:10.546Z,938.63
2018-12-02T03:54:10.445Z,938.59
2018-12-02T03:55:10.346Z,938.57
2018-12-02T03:56:10.245Z,938.48
2018-12-02T03:57:10.158Z,938.48
2018-12-02T03:58:10.040Z,938.57
2018-12-02T03:59:09.939Z,938.54
2018-12-02T04:00:09.838Z,938.54
2018-12-02T04:01:09.737Z,938.47
2018-12-02T04:02:09.650Z,938.44
2018-12-02T04:03:09.533Z,938.45
2018-12-02T04:04:09.431Z,938.52
2018-12-02T04:05:09.328Z,938.38
2018-12-02T04:06:09.228Z,938.43
2018-12-02T04:07:09.142Z,938.37
2018-12-02T04:08:09.031Z,938.54
2018-12-02T04:09:08.923Z,938.41
2018-12-02T04:10:08.830Z,938.42
2018-12-02T04:11:08.724Z,938.50
2018-12-02T04:12:08.633Z,938.32
2018-12-02T04:13:08.518Z,938.36
2018-12-02T04:14:08.415Z,938.33
2018-12-02T04:15:08.314Z,938.35
2018-12-02T04:16:08.222Z,938.28
2018-12-02T04:17:08.128Z,938.24
2018-12-02T04:18:08.023Z,938.20
2018-12-02T04:19:07.912Z,938.26
2018-12-02T04:20:07.811Z,938.24
2018-12-02T04:21:07.703Z,938.25
2018-12-02T04:22:07.618Z,938.25
2018-12-02T04:23:07.500Z,938.27
2018-12-02T04:24:07.503Z,938.19
2018-12-02T04:25:07.303Z,938.28
2018-12-02T04:26:07.195Z,938.24
2018-12-02T04:27:07.112Z,938.25
2018-12-02T04:28:06.992Z,938.44
2018-12-02T04:29:06.891Z,938.21
2018-12-02T04:30:06.792Z,938.15
2018-12-02T04:31:06.792Z,938.19
2018-12-02T04:32:06.605Z,938.15
2018-12-02T04:33:06.489Z,938.24
2018-12-02T04:34:06.384Z,938.17
2018-12-02T04:35:06.281Z,938.08
2018-12-02T04:36:06.179Z,938.20
2018-12-02T04:37:06.096Z,938.18
2018-12-02T04:38:06.079Z,938.15
2018-12-02T04:39:05.876Z,938.13
2018-12-02T04:40:05.774Z,938.07
2018-12-02T04:41:05.674Z,938.10
2018-12-02T04:42:05.590Z,938.03
2018-12-02T04:43:05.470Z,938.09
2018-12-02T04:44:05.368Z,938.21
2018-12-02T04:45:05.381Z,938.06
2018-12-02T04:46:05.166Z,938.09
2018-12-02T04:47:05.079Z,938.06
2018-12-02T04:48:04.967Z,938.02
2018-12-02T04:49:04.860Z,938.00
2018-12-02T04:50:04.759Z,937.95
2018-12-02T04:51:04.659Z,937.99
2018-12-02T04:52:04.675Z,937.91
2018-12-02T04:53:04.454Z,937.97
2018-12-02T04:54:04.355Z,937.88
2018-12-02T04:55:04.251Z,937.91
2018-12-02T04:56:04.148Z,937.95
2018-12-02T04:57:04.065Z,937.86
2018-12-02T04:58:03.950Z,937.80
2018-12-02T04:59:03.956Z,937.86
2018-12-02T05:00:03.747Z,937.93
2018-12-02T05:01:03.641Z,937.86
2018-12-02T05:02:03.555Z,937.85
2018-12-02T05:03:03.460Z,937.71
2018-12-02T05:04:03.336Z,937.82
2018-12-02T05:05:03.235Z,937.78
2018-12-02T05:06:03.235Z,937.81
2018-12-02T05:07:03.048Z,937.91
2018-12-02T05:08:02.930Z,937.84
2018-12-02T05:09:02.830Z,937.70
2018-12-02T05:10:02.728Z,937.79
2018-12-02T05:11:02.627Z,937.69
2018-12-02T05:12:02.539Z,937.60
2018-12-02T05:13:02.538Z,937.72
2018-12-02T05:14:02.321Z,937.58
2018-12-02T05:15:02.222Z,937.69
2018-12-02T05:16:02.116Z,937.77
2018-12-02T05:17:02.036Z,937.56
2018-12-02T05:18:01.915Z,937.49
2018-12-02T05:19:01.812Z,937.63
2018-12-02T05:20:01.830Z,937.57
2018-12-02T05:21:01.608Z,937.49
2018-12-02T05:22:01.526Z,937.48
2018-12-02T05:23:01.407Z,937.59
2018-12-02T05:24:01.303Z,937.44
2018-12-02T05:25:01.211Z,937.38
2018-12-02T05:26:01.097Z,937.49
2018-12-02T05:27:01.109Z,937.41
2018-12-02T05:28:00.919Z,937.48
2018-12-02T05:29:00.799Z,937.41
2018-12-02T05:30:00.693Z,937.41
2018-12-02T05:31:00.592Z,937.44
2018-12-02T05:32:00.494Z,937.35
2018-12-02T05:33:00.404Z,937.34
2018-12-02T05:34:00.285Z,937.37
2018-12-02T05:35:00.185Z,937.40
2018-12-02T05:36:00.082Z,937.54
2018-12-02T05:36:59.983Z,937.41
2018-12-02T05:37:59.894Z,937.40
2018-12-02T05:38:59.779Z,937.38
2018-12-02T05:39:59.674Z,937.32
2018-12-02T05:40:59.573Z,937.39
2018-12-02T05:41:59.473Z,937.34
2018-12-02T05:42:59.387Z,937.45
2018-12-02T05:43:59.267Z,937.29
2018-12-02T05:44:59.172Z,937.29
2018-12-02T05:45:59.064Z,937.53
2018-12-02T05:46:58.965Z,937.33
2018-12-02T05:47:58.881Z,937.32
2018-12-02T05:48:58.760Z,937.32
2018-12-02T05:49:58.673Z,937.24
2018-12-02T05:50:58.558Z,937.27
2018-12-02T05:51:58.453Z,937.53
2018-12-02T05:52:58.369Z,937.21
2018-12-02T05:53:58.253Z,937.20
2018-12-02T05:54:58.149Z,937.16
2018-12-02T05:55:58.046Z,937.22
2018-12-02T05:56:57.944Z,937.11
2018-12-02T05:57:57.859Z,937.16
2018-12-02T05:58:57.751Z,937.05
2018-12-02T05:59:57.640Z,937.11
2018-12-02T06:00:57.539Z,937.03
2018-12-02T06:01:57.440Z,937.07
2018-12-02T06:02:57.357Z,937.12
2018-12-02T06:03:57.232Z,937.02
2018-12-02T06:04:57.132Z,936.96
2018-12-02T06:05:57.030Z,937.11
2018-12-02T06:06:56.927Z,937.02
2018-12-02T06:07:56.842Z,937.04
2018-12-02T06:08:56.725Z,937.00
2018-12-02T06:09:56.623Z,936.92
2018-12-02T06:10:56.835Z,936.90
2018-12-02T06:11:56.422Z,937.06
2018-12-02T06:12:56.334Z,937.00
2018-12-02T06:13:56.218Z,936.87
2018-12-02T06:14:56.114Z,936.98
2018-12-02T06:15:56.011Z,936.85
2018-12-02T06:16:55.912Z,936.91
2018-12-02T06:17:55.827Z,937.01
2018-12-02T06:18:55.708Z,936.92
2018-12-02T06:19:55.605Z,936.90
2018-12-02T06:20:55.505Z,936.84
2018-12-02T06:21:55.402Z,936.87
2018-12-02T06:22:55.318Z,936.92
2018-12-02T06:23:55.198Z,936.84
2018-12-02T06:24:55.097Z,936.90
2018-12-02T06:25:54.994Z,936.92
2018-12-02T06:26:54.906Z,936.82
2018-12-02T06:27:54.805Z,936.84
2018-12-02T06:28:54.688Z,936.91
2018-12-02T06:29:54.588Z,936.71
2018-12-02T06:30:54.485Z,936.86
2018-12-02T06:31:54.382Z,936.91
2018-12-02T06:32:54.297Z,936.91
2018-12-02T06:33:54.179Z,936.81
2018-12-02T06:34:54.078Z,936.72
2018-12-02T06:35:53.975Z,936.74
2018-12-02T06:36:53.873Z,936.74
2018-12-02T06:37:53.790Z,936.70
2018-12-02T06:38:53.675Z,936.64
2018-12-02T06:39:53.568Z,936.64
2018-12-02T06:40:53.465Z,936.64
2018-12-02T06:41:53.366Z,936.60
2018-12-02T06:42:53.279Z,936.57
2018-12-02T06:43:53.161Z,936.64
2018-12-02T06:44:53.062Z,936.64
2018-12-02T06:45:52.958Z,936.62
2018-12-02T06:46:52.861Z,936.69
2018-12-02T06:47:52.772Z,936.75
2018-12-02T06:48:52.651Z,936.62
2018-12-02T06:49:52.550Z,936.63
2018-12-02T06:50:52.447Z,936.63
2018-12-02T06:51:52.345Z,936.75
2018-12-02T06:52:52.261Z,936.52
2018-12-02T06:53:52.142Z,936.63
2018-12-02T06:54:52.043Z,936.66
2018-12-02T06:55:51.941Z,936.56
2018-12-02T06:56:51.846Z,936.61
2018-12-02T06:57:51.753Z,936.59
2018-12-02T06:58:51.634Z,936.61
2018-12-02T06:59:51.533Z,936.49
2018-12-02T07:00:51.430Z,936.63
2018-12-02T07:01:51.786Z,936.62
2018-12-02T07:02:51.242Z,936.60
2018-12-02T07:03:51.123Z,936.63
2018-12-02T07:04:51.026Z,936.45
2018-12-02T07:05:50.921Z,936.49
2018-12-02T07:06:50.820Z,936.60
2018-12-02T07:07:50.732Z,936.52
2018-12-02T07:08:50.619Z,936.63
2018-12-02T07:09:50.513Z,936.65
2018-12-02T07:10:50.412Z,936.61
2018-12-02T07:11:50.317Z,936.60
2018-12-02T07:12:50.211Z,936.60
2018-12-02T07:13:50.130Z,936.52
2018-12-02T07:14:50.005Z,936.43
2018-12-02T07:15:49.902Z,936.45
2018-12-02T07:16:49.801Z,936.45
2018-12-02T07:17:49.700Z,936.46
2018-12-02T07:18:49.614Z,936.57
2018-12-02T07:19:49.493Z,936.62
2018-12-02T07:20:49.392Z,936.51
2018-12-02T07:21:49.290Z,936.54
2018-12-02T07:22:49.207Z,936.56
2018-12-02T07:23:49.102Z,936.59
2018-12-02T07:24:48.987Z,936.47
2018-12-02T07:25:48.986Z,936.59
2018-12-02T07:26:48.780Z,936.45
2018-12-02T07:27:48.686Z,936.44
2018-12-02T07:28:48.597Z,936.54
2018-12-02T07:29:48.474Z,936.52
2018-12-02T07:30:48.374Z,936.40
2018-12-02T07:31:48.271Z,936.50
2018-12-02T07:32:48.173Z,936.48
2018-12-02T07:33:48.084Z,936.28
2018-12-02T07:34:47.968Z,936.36
2018-12-02T07:35:47.862Z,936.41
2018-12-02T07:36:47.761Z,936.37
2018-12-02T07:37:47.659Z,936.34
2018-12-02T07:38:47.575Z,936.34
2018-12-02T07:39:47.558Z,936.36
2018-12-02T07:40:47.354Z,936.28
2018-12-02T07:41:47.266Z,936.27
2018-12-02T07:42:47.152Z,936.27
2018-12-02T07:43:47.064Z,936.23
2018-12-02T07:44:46.944Z,936.16
2018-12-02T07:45:46.845Z,936.12
2018-12-02T07:46:46.846Z,936.01
2018-12-02T07:47:46.640Z,936.08
2018-12-02T07:48:46.560Z,936.18
2018-12-02T07:49:46.440Z,936.08
2018-12-02T07:50:46.336Z,936.02
2018-12-02T07:51:46.236Z,936.05
2018-12-02T07:52:46.130Z,936.09
2018-12-02T07:53:46.149Z,936.01
2018-12-02T07:54:45.928Z,936.10
2018-12-02T07:55:45.825Z,936.10
2018-12-02T07:56:45.723Z,936.08
2018-12-02T07:57:45.623Z,935.97
2018-12-02T07:58:45.538Z,936.09
2018-12-02T07:59:45.421Z,936.14
2018-12-02T08:00:45.429Z,936.12
2018-12-02T08:01:45.216Z,936.09
2018-12-02T08:02:45.113Z,936.00
2018-12-02T08:03:45.026Z,935.95
2018-12-02T08:04:44.908Z,935.95
2018-12-02T08:05:44.806Z,935.99
2018-12-02T08:06:44.707Z,935.95
2018-12-02T08:07:44.713Z,935.92
2018-12-02T08:08:44.520Z,935.94
2018-12-02T08:09:44.399Z,935.98
2018-12-02T08:10:44.298Z,935.91
2018-12-02T08:11:44.199Z,935.96
2018-12-02T08:12:44.096Z,935.98
2018-12-02T08:13:44.012Z,935.86
2018-12-02T08:14:44.001Z,935.91
2018-12-02T08:15:43.792Z,935.91
2018-12-02T08:16:43.686Z,935.79
2018-12-02T08:17:43.587Z,935.89
2018-12-02T08:18:43.502Z,935.83
2018-12-02T08:19:43.381Z,935.87
2018-12-02T08:20:43.279Z,935.84
2018-12-02T08:21:43.284Z,935.95
2018-12-02T08:22:43.078Z,935.91
2018-12-02T08:23:42.992Z,935.83
2018-12-02T08:24:42.875Z,935.86
2018-12-02T08:25:42.772Z,935.85
2018-12-02T08:26:42.671Z,935.86
2018-12-02T08:27:42.566Z,935.94
2018-12-02T08:28:42.571Z,935.86
2018-12-02T08:29:42.364Z,935.90
2018-12-02T08:30:42.264Z,935.86
2018-12-02T08:31:42.162Z,935.86
2018-12-02T08:32:42.056Z,935.81
2018-12-02T08:33:41.973Z,935.87
2018-12-02T08:34:41.855Z,935.86
2018-12-02T08:35:41.860Z,935.79
2018-12-02T08:36:41.651Z,935.76
2018-12-02T08:37:41.551Z,935.76
2018-12-02T08:38:41.466Z,935.88
2018-12-02T08:39:41.345Z,935.92
2018-12-02T08:40:41.243Z,935.77
2018-12-02T08:41:41.141Z,935.79
2018-12-02T08:42:41.151Z,935.79
2018-12-02T08:43:41.228Z,935.66
2018-12-02T08:44:40.838Z,935.72
2018-12-02T08:45:40.735Z,935.69
2018-12-02T08:46:40.632Z,935.70
2018-12-02T08:47:40.532Z,935.72
2018-12-02T08:48:40.446Z,935.64
2018-12-02T08:49:40.436Z,935.73
2018-12-02T08:50:40.229Z,935.67
2018-12-02T08:51:40.124Z,935.67
2018-12-02T08:52:40.023Z,935.63
2018-12-02T08:53:39.943Z,935.66
2018-12-02T08:54:39.822Z,935.65
2018-12-02T08:55:39.846Z,935.67
2018-12-02T08:56:39.616Z,935.59
2018-12-02T08:57:39.513Z,935.64
2018-12-02T08:58:39.417Z,935.59
2018-12-02T08:59:39.330Z,935.59
2018-12-02T09:00:39.212Z,935.61
2018-12-02T09:01:39.114Z,935.61
2018-12-02T09:02:39.009Z,935.62
2018-12-02T09:03:38.905Z,935.63
2018-12-02T09:04:38.875Z,935.62
2018-12-02T09:05:38.700Z,935.61
2018-12-02T09:06:38.600Z,935.66
2018-12-02T09:07:38.496Z,935.61
2018-12-02T09:08:38.399Z,935.61
2018-12-02T09:09:38.309Z,935.62
2018-12-02T09:10:38.193Z,935.63
2018-12-02T09:11:38.092Z,935.62
2018-12-02T09:12:37.988Z,935.60
2018-12-02T09:13:37.890Z,935.61
2018-12-02T09:14:37.803Z,935.63
2018-12-02T09:15:37.683Z,935.70
2018-12-02T09:16:37.581Z,935.65
2018-12-02T09:17:37.480Z,935.62
2018-12-02T09:18:37.383Z,935.67
2018-12-02T09:19:37.329Z,935.69
2018-12-02T09:20:37.179Z,935.67
2018-12-02T09:21:37.075Z,935.60
2018-12-02T09:22:36.972Z,935.59
2018-12-02T09:23:36.872Z,935.57
2018-12-02T09:24:36.786Z,935.54
2018-12-02T09:25:36.669Z,935.40
2018-12-02T09:26:36.567Z,935.62
2018-12-02T09:27:36.466Z,935.54
2018-12-02T09:28:36.363Z,935.51
2018-12-02T09:29:36.282Z,935.48
2018-12-02T09:30:36.164Z,935.45
2018-12-02T09:31:36.060Z,935.47
2018-12-02T09:32:35.958Z,935.44
2018-12-02T09:33:35.865Z,935.38
2018-12-02T09:34:35.772Z,935.33
2018-12-02T09:35:35.654Z,935.28
2018-12-02T09:36:35.552Z,935.36
2018-12-02T09:37:35.451Z,935.32
2018-12-02T09:38:35.350Z,935.31
2018-12-02T09:39:35.265Z,935.31
2018-12-02T09:40:35.155Z,935.29
2018-12-02T09:41:35.049Z,935.28
2018-12-02T09:42:34.943Z,935.27
2018-12-02T09:43:34.844Z,935.27
2018-12-02T09:44:34.762Z,935.36
2018-12-02T09:45:34.638Z,935.30
2018-12-02T09:46:34.538Z,935.19
2018-12-02T09:47:34.436Z,935.20
2018-12-02T09:48:34.339Z,935.25
2018-12-02T09:49:34.251Z,935.22
2018-12-02T09:50:34.132Z,935.17
2018-12-02T09:51:34.030Z,935.17
2018-12-02T09:52:33.929Z,935.11
2018-12-02T09:53:33.828Z,935.10
2018-12-02T09:54:33.747Z,935.09
2018-12-02T09:55:33.624Z,935.03
2018-12-02T09:56:33.528Z,934.99
2018-12-02T09:57:33.425Z,935.06
2018-12-02T09:58:33.321Z,935.02
2018-12-02T09:59:33.235Z,935.03
2018-12-02T10:00:34.337Z,935.02
2018-12-02T10:01:33.016Z,935.07
2018-12-02T10:02:32.915Z,934.95
2018-12-02T10:03:32.817Z,935.03
2018-12-02T10:04:32.729Z,934.93
2018-12-02T10:05:32.613Z,935.03
2018-12-02T10:06:32.510Z,934.94
2018-12-02T10:07:32.408Z,934.86
2018-12-02T10:08:32.306Z,934.88
2018-12-02T10:09:32.226Z,934.87
2018-12-02T10:10:32.107Z,934.84
2018-12-02T10:11:32.003Z,934.80
2018-12-02T10:12:32.007Z,934.79
2018-12-02T10:13:31.799Z,934.88
2018-12-02T10:14:31.715Z,934.98
2018-12-02T10:15:31.595Z,934.79
2018-12-02T10:16:31.502Z,934.71
2018-12-02T10:17:31.397Z,934.77
2018-12-02T10:18:31.291Z,934.83
2018-12-02T10:19:31.207Z,934.62
2018-12-02T10:20:31.092Z,934.67
2018-12-02T10:21:30.990Z,934.62
2018-12-02T10:22:30.889Z,934.68
2018-12-02T10:23:30.787Z,934.72
2018-12-02T10:24:30.701Z,934.62
2018-12-02T10:25:30.623Z,934.61
2018-12-02T10:26:30.580Z,934.66
2018-12-02T10:27:30.379Z,934.65
2018-12-02T10:28:30.279Z,934.57
2018-12-02T10:29:30.194Z,934.59
2018-12-02T10:30:30.077Z,934.62
2018-12-02T10:31:29.976Z,934.62
2018-12-02T10:32:29.874Z,934.66
2018-12-02T10:33:29.877Z,934.57
2018-12-02T10:34:29.688Z,934.55
2018-12-02T10:35:29.569Z,934.53
2018-12-02T10:36:29.471Z,934.56
2018-12-02T10:37:29.389Z,934.54
2018-12-02T10:38:29.273Z,934.51
2018-12-02T10:39:29.169Z,934.49
2018-12-02T10:40:29.179Z,934.50
2018-12-02T10:41:28.964Z,934.51
2018-12-02T10:42:28.861Z,934.48
2018-12-02T10:43:28.759Z,934.44
2018-12-02T10:44:28.675Z,934.43
2018-12-02T10:45:28.558Z,934.45
2018-12-02T10:46:28.457Z,934.42
2018-12-02T10:47:28.464Z,934.41
2018-12-02T10:48:28.254Z,934.37
2018-12-02T10:49:28.154Z,934.40
2018-12-02T10:50:28.068Z,934.38
2018-12-02T10:51:27.960Z,934.40
2018-12-02T10:52:27.848Z,934.50
2018-12-02T10:53:27.749Z,934.33
2018-12-02T10:54:27.755Z,934.31
2018-12-02T10:55:27.563Z,934.30
2018-12-02T10:56:27.445Z,934.28
2018-12-02T10:57:27.345Z,934.28
2018-12-02T10:58:27.245Z,934.35
2018-12-02T10:59:27.145Z,934.32
2018-12-02T11:00:27.057Z,934.31
2018-12-02T11:01:27.043Z,934.37
2018-12-02T11:02:26.842Z,934.24
2018-12-02T11:03:26.739Z,934.26
2018-12-02T11:04:26.646Z,934.26
2018-12-02T11:05:26.551Z,934.25
2018-12-02T11:06:26.451Z,934.23
2018-12-02T11:07:26.334Z,934.35
2018-12-02T11:08:26.336Z,934.17
2018-12-02T11:09:26.130Z,934.26
2018-12-02T11:10:26.047Z,934.21
2018-12-02T11:11:25.929Z,934.23
2018-12-02T11:12:25.830Z,934.21
2018-12-02T11:13:25.727Z,934.18
2018-12-02T11:14:25.626Z,934.16
2018-12-02T11:15:25.665Z,934.16
2018-12-02T11:16:25.425Z,934.17
2018-12-02T11:17:25.324Z,934.08
2018-12-02T11:18:25.224Z,934.16
2018-12-02T11:19:25.121Z,934.12
2018-12-02T11:20:25.036Z,934.08
2018-12-02T11:21:24.918Z,934.03
2018-12-02T11:22:24.920Z,934.14
2018-12-02T11:23:24.717Z,934.02
2018-12-02T11:24:24.619Z,933.98
2018-12-02T11:25:24.556Z,933.97
2018-12-02T11:26:24.420Z,934.01
2018-12-02T11:27:24.313Z,933.98
2018-12-02T11:28:24.212Z,934.00
2018-12-02T11:29:24.112Z,933.96
2018-12-02T11:30:24.029Z,933.89
2018-12-02T11:31:23.910Z,933.95
2018-12-02T11:32:23.808Z,933.87
2018-12-02T11:33:23.707Z,933.89
2018-12-02T11:34:23.606Z,933.87
2018-12-02T11:35:23.521Z,933.85
2018-12-02T11:36:23.406Z,933.92
2018-12-02T11:37:23.305Z,933.85
2018-12-02T11:38:23.202Z,933.83
2018-12-02T11:39:23.101Z,933.80
2018-12-02T11:40:23.016Z,933.83
2018-12-02T11:41:22.899Z,933.82
2018-12-02T11:42:22.799Z,933.87
2018-12-02T11:43:22.699Z,933.83
2018-12-02T11:44:22.598Z,933.88
2018-12-02T11:45:22.512Z,933.92
2018-12-02T11:46:22.397Z,933.86
2018-12-02T11:47:22.296Z,933.83
2018-12-02T11:48:22.193Z,933.84
2018-12-02T11:49:22.092Z,933.77
2018-12-02T11:50:22.011Z,933.81
2018-12-02T11:51:21.890Z,933.83
2018-12-02T11:52:21.790Z,933.80
2018-12-02T11:53:21.691Z,933.84
2018-12-02T11:54:21.589Z,933.79
2018-12-02T11:55:21.505Z,933.80
2018-12-02T11:56:21.387Z,933.82
2018-12-02T11:57:26.451Z,933.77
2018-12-02T11:58:21.190Z,933.80
2018-12-02T11:59:21.084Z,933.76
2018-12-02T12:00:21.000Z,933.75
2018-12-02T12:01:20.882Z,933.76
2018-12-02T12:02:20.784Z,933.74
2018-12-02T12:03:20.680Z,933.74
2018-12-02T12:04:20.582Z,933.72
2018-12-02T12:05:20.499Z,933.69
2018-12-02T12:06:20.381Z,933.66
2018-12-02T12:07:20.281Z,933.62
2018-12-02T12:08:20.178Z,933.68
2018-12-02T12:09:20.077Z,933.62
2018-12-02T12:10:19.995Z,933.61
2018-12-02T12:11:19.877Z,933.73
2018-12-02T12:12:19.776Z,933.59
2018-12-02T12:13:19.679Z,933.59
2018-12-02T12:14:19.578Z,933.55
2018-12-02T12:15:19.492Z,933.49
2018-12-02T12:16:19.376Z,933.57
2018-12-02T12:17:19.271Z,933.57
2018-12-02T12:18:19.172Z,933.51
2018-12-02T12:19:19.077Z,933.58
2018-12-02T12:20:18.988Z,933.51
2018-12-02T12:21:18.870Z,933.54
2018-12-02T12:22:18.770Z,933.56
2018-12-02T12:23:18.667Z,933.54
2018-12-02T12:24:18.570Z,933.58
2018-12-02T12:25:18.483Z,933.56
2018-12-02T12:26:18.364Z,933.58
2018-12-02T12:27:18.265Z,933.60